Hlavní strana
METAR-TAF:

METAR-TAF

Letiště :

Muscle Shoals, Alabama, Spojené státy americké

zeměpisná šířka: 34-44-38N, zeměpisná délka: 087-35-58W, výška: 167 m

Aktuální stav počasí

Zpráva byla vytvořena před 33 minutami, v 16:53 UTC
Severoseverovýchodní vítr 8 kt s nárazy do 15 kt
Teplota 9°C
Vlhkost vzduchu 40%
Tlak 1026 hPa
Viditelnost: 16.1 km
Jasno

METAR: KMSL 151653Z AUTO 02008G15KT 10SM CLR 09/M04 A3030 RMK AO2 SLP260 T00941039 $

Čas: 11:26 (17:26 UTC)

Předpověď počasí

Zpráva byla vytvořena před 2 hodinami a 28 minutami, v 14:58 UTC
Předpověď platná od 15 v 15 UTC do 16 v 12 UTC
Severní vítr 9 kt s nárazy do 19 kt
Viditelnost: 10 km
Polojasno ve výšce 25000 ft
Od 15 v 1600 UTC
Severní vítr 11 kt
Viditelnost: 10 km
Polojasno ve výšce 25000 ft
Od 16 v 0200 UTC
Severní vítr 6 kt
Viditelnost: 10 km
Jasno

TAF: KMSL 151458Z 1515/1612 01009G19KT P6SM SCT250 FM151600 36011KT P6SM SCT250 FM160200 01006KT P6SM SKC

Stav a předpovědi počasí z více než 4 000 letišť (zprávy METAR a TAF).

Červené a žluté tečky na mapě představují dostupné meteorologické stanice.

Když kurzor umístíte na tečku, zobrazí se název stanice.

Pak kliknutím zobrazíte stav a předpověď počasí.

Chcete-li změnit mapu, kliknutím na zelené tlačítko se znaménkem +mapu přiblížíte, kliknutím na zelené tlačítko se znaménkem – mapu oddálíte a kliknutím na zelené šipky přejdete na sousední mapy.


METAR-TAF: